Time;durP1;ratioP1;P1;durP2;ratioP2;P2;SDS_P1;SDS_P2;PMS_P1;PMS_P2;Temp;Humidity;BMP_temperature;BMP_pressure;BME280_temperature;BME280_humidity;BME280_pressure;Samples;Min_cycle;Max_cycle;Signal;HPM_P1;HPM_P2
2022/02/25 00:00:24;;;;;;;1.80;1.30;;;3.90;99.90;;;;;;5077136;28;20591;-72
2022/02/25 00:02:50;;;;;;;2.85;1.13;;;3.90;99.90;;;;;;5077150;28;20219;-72
2022/02/25 00:05:17;;;;;;;1.63;1.00;;;3.90;99.90;;;;;;5076118;28;20239;-72
2022/02/25 00:07:43;;;;;;;1.30;1.10;;;3.80;99.90;;;;;;5076358;28;20215;-72
2022/02/25 00:10:10;;;;;;;3.58;1.33;;;3.70;99.90;;;;;;5074624;28;20199;-72
2022/02/25 00:12:38;;;;;;;1.77;1.33;;;3.70;99.90;;;;;;5074879;28;20200;-72
2022/02/25 00:15:05;;;;;;;7.72;1.30;;;3.70;99.90;;;;;;5075853;28;20215;-72
2022/02/25 00:17:31;;;;;;;2.38;1.23;;;3.60;99.90;;;;;;5074418;28;20265;-72
2022/02/25 00:19:58;;;;;;;3.35;1.42;;;3.60;99.90;;;;;;5075665;28;20257;-72
2022/02/25 00:22:24;;;;;;;2.40;1.13;;;3.50;99.90;;;;;;5075090;28;20598;-72
2022/02/25 00:24:51;;;;;;;7.00;1.30;;;3.50;99.90;;;;;;5075188;28;20228;-72
2022/02/25 00:27:17;;;;;;;1.45;1.20;;;3.50;99.90;;;;;;5075491;28;20619;-72
2022/02/25 00:29:43;;;;;;;3.70;1.00;;;3.50;99.90;;;;;;5075531;28;20588;-72
2022/02/25 00:32:10;;;;;;;6.13;1.10;;;3.40;99.90;;;;;;5075823;28;20632;-72
2022/02/25 00:34:36;;;;;;;1.65;1.10;;;3.40;99.90;;;;;;5076052;28;20203;-72
2022/02/25 00:37:03;;;;;;;1.27;1.13;;;3.30;99.90;;;;;;5074821;28;20200;-72
2022/02/25 00:39:30;;;;;;;5.45;2.35;;;3.30;99.90;;;;;;5076084;28;20207;-72
2022/02/25 00:41:56;;;;;;;3.67;1.45;;;3.30;99.90;;;;;;5076028;28;20215;-72
2022/02/25 00:44:23;;;;;;;3.55;1.23;;;3.20;99.90;;;;;;5075544;28;20239;-73
2022/02/25 00:46:49;;;;;;;2.35;1.30;;;3.10;99.90;;;;;;5075785;28;20238;-73
2022/02/25 00:49:16;;;;;;;2.15;1.08;;;3.10;99.90;;;;;;5074148;28;20600;-72
2022/02/25 00:51:42;;;;;;;3.75;1.20;;;3.10;99.90;;;;;;5073867;28;20200;-72
2022/02/25 00:54:08;;;;;;;4.05;1.25;;;3.10;99.90;;;;;;5074951;28;20195;-72
2022/02/25 00:56:35;;;;;;;1.67;0.75;;;3.00;99.90;;;;;;5075048;28;20199;-72
2022/02/25 00:59:02;;;;;;;4.93;1.13;;;3.00;99.90;;;;;;5074717;28;20268;-72
2022/02/25 01:01:28;;;;;;;2.40;0.90;;;3.00;99.90;;;;;;5075122;28;20640;-72
2022/02/25 01:03:55;;;;;;;9.65;1.10;;;2.90;99.90;;;;;;5074279;28;20729;-71
2022/02/25 01:06:21;;;;;;;2.67;1.10;;;2.90;99.90;;;;;;5074988;28;20220;-71
2022/02/25 01:08:47;;;;;;;2.38;1.27;;;2.90;99.90;;;;;;5074685;28;20204;-71
2022/02/25 01:11:14;;;;;;;1.75;1.25;;;2.90;99.90;;;;;;5075161;28;20203;-71
2022/02/25 01:13:40;;;;;;;4.30;1.33;;;2.90;99.90;;;;;;5075417;28;20200;-71
2022/02/25 01:16:07;;;;;;;6.38;1.40;;;2.80;99.90;;;;;;5075599;28;20273;-71
2022/02/25 01:18:33;;;;;;;4.22;1.15;;;2.80;99.90;;;;;;5075345;28;20207;-71
2022/02/25 01:20:59;;;;;;;1.05;0.90;;;2.80;99.90;;;;;;5075235;28;20207;-71
2022/02/25 01:23:26;;;;;;;2.15;1.08;;;2.70;99.90;;;;;;5073678;28;20203;-72
2022/02/25 01:25:52;;;;;;;3.10;1.40;;;2.60;99.90;;;;;;5075369;28;20219;-71
2022/02/25 01:28:19;;;;;;;5.65;1.90;;;2.60;99.90;;;;;;5075135;28;20200;-71
2022/02/25 01:30:45;;;;;;;4.78;1.30;;;2.60;99.90;;;;;;5075161;28;20200;-71
2022/02/25 01:33:12;;;;;;;1.63;0.95;;;2.60;99.90;;;;;;5075160;28;20694;-71
2022/02/25 01:35:38;;;;;;;3.20;1.50;;;2.60;99.90;;;;;;5073356;28;20200;-71
2022/02/25 01:38:05;;;;;;;3.97;1.23;;;2.50;99.90;;;;;;5074681;28;20203;-71
2022/02/25 01:40:31;;;;;;;2.20;0.90;;;2.50;99.90;;;;;;5074843;28;20200;-71
2022/02/25 01:42:59;;;;;;;3.90;1.88;;;2.40;99.90;;;;;;5074615;28;20594;-72
2022/02/25 01:45:26;;;;;;;2.55;1.50;;;2.40;99.90;;;;;;5074269;28;20224;-71
2022/02/25 01:47:52;;;;;;;5.80;1.25;;;2.40;99.90;;;;;;5072989;28;20203;-71
2022/02/25 01:50:19;;;;;;;7.28;1.75;;;2.40;99.90;;;;;;5074043;28;20204;-71
2022/02/25 01:52:59;;;;;;;4.07;1.20;;;2.40;99.90;;;;;;5074051;28;20197;-71
2022/02/25 01:55:27;;;;;;;4.45;1.75;;;2.40;99.90;;;;;;5072669;28;20260;-71
2022/02/25 01:57:53;;;;;;;4.70;1.15;;;2.50;99.90;;;;;;5073895;28;20223;-71
2022/02/25 02:00:20;;;;;;;2.70;1.27;;;2.50;99.90;;;;;;5074519;28;20204;-71
2022/02/25 02:02:46;;;;;;;6.15;1.60;;;2.50;99.90;;;;;;5074875;28;20211;-71
2022/02/25 02:05:14;;;;;;;6.13;1.30;;;2.50;99.90;;;;;;5074332;28;20238;-72
2022/02/25 02:07:40;;;;;;;4.57;1.48;;;2.50;99.90;;;;;;5074223;28;20224;-72
2022/02/25 02:10:07;;;;;;;2.20;1.20;;;2.50;99.90;;;;;;5074195;28;20204;-72
2022/02/25 02:12:34;;;;;;;4.13;1.40;;;2.40;99.90;;;;;;5074381;28;20563;-72
2022/02/25 02:15:01;;;;;;;3.05;1.15;;;2.50;99.90;;;;;;5073545;28;20215;-72
2022/02/25 02:17:27;;;;;;;4.55;1.42;;;2.40;99.90;;;;;;5074354;28;20231;-71
2022/02/25 02:19:54;;;;;;;3.72;1.70;;;2.40;99.90;;;;;;5074293;28;20632;-72
2022/02/25 02:22:24;;;;;;;1.83;1.42;;;2.40;99.90;;;;;;5074481;28;20207;-72
2022/02/25 02:24:51;;;;;;;5.65;1.40;;;2.40;99.90;;;;;;5073473;28;20621;-70
2022/02/25 02:27:18;;;;;;;2.45;1.45;;;2.40;99.90;;;;;;5074001;28;20207;-72
2022/02/25 02:29:44;;;;;;;5.10;1.10;;;2.40;99.90;;;;;;5073773;28;20200;-72
2022/02/25 02:32:11;;;;;;;2.47;1.30;;;2.30;99.90;;;;;;5073556;28;20241;-70
2022/02/25 02:34:38;;;;;;;5.45;1.63;;;2.30;99.90;;;;;;5074493;28;20200;-70
2022/02/25 02:37:07;;;;;;;25.08;8.80;;;2.30;99.90;;;;;;5074113;28;20229;-71
2022/02/25 02:39:34;;;;;;;9.02;4.32;;;2.40;99.90;;;;;;5074612;28;20207;-70
2022/02/25 02:42:01;;;;;;;6.57;2.08;;;2.30;99.90;;;;;;5075020;28;20207;-70
2022/02/25 02:44:27;;;;;;;5.35;3.05;;;2.30;99.90;;;;;;5074098;28;20211;-70
2022/02/25 02:46:53;;;;;;;10.95;4.30;;;2.30;99.90;;;;;;5075768;28;20207;-71
2022/02/25 02:49:20;;;;;;;6.90;1.63;;;2.30;99.90;;;;;;5076581;28;20690;-71
2022/02/25 02:51:47;;;;;;;9.73;6.75;;;2.30;99.90;;;;;;5077994;28;20253;-71
2022/02/25 02:54:13;;;;;;;16.38;8.20;;;2.30;99.90;;;;;;5078138;28;20199;-71
2022/02/25 02:56:40;;;;;;;17.67;10.02;;;2.20;99.90;;;;;;5076676;28;20195;-71
2022/02/25 02:59:06;;;;;;;21.92;12.35;;;2.20;99.90;;;;;;5078046;28;20200;-71
2022/02/25 03:01:33;;;;;;;14.05;5.60;;;2.20;99.90;;;;;;5078019;28;20225;-71
2022/02/25 03:03:59;;;;;;;7.07;3.25;;;2.20;99.90;;;;;;5076996;28;20265;-71
2022/02/25 03:06:27;;;;;;;8.18;2.60;;;2.10;99.90;;;;;;5077332;28;20224;-71
2022/02/25 03:08:54;;;;;;;8.13;1.65;;;2.10;99.90;;;;;;5077080;28;20227;-70
2022/02/25 03:11:21;;;;;;;6.35;1.90;;;2.00;99.90;;;;;;5077402;28;20218;-70
2022/02/25 03:13:49;;;;;;;6.38;2.05;;;2.00;99.90;;;;;;5077395;28;20282;-70
2022/02/25 03:16:15;;;;;;;5.50;2.05;;;2.00;99.90;;;;;;5076764;28;20211;-70
2022/02/25 03:18:42;;;;;;;11.18;2.95;;;2.00;99.90;;;;;;5076916;28;20207;-70
2022/02/25 03:21:10;;;;;;;2.95;1.65;;;2.10;99.90;;;;;;5077789;28;20203;-70
2022/02/25 03:23:36;;;;;;;10.32;2.00;;;2.00;99.90;;;;;;5078396;28;20207;-70
2022/02/25 03:26:03;;;;;;;7.90;2.20;;;1.90;99.90;;;;;;5078052;28;20709;-71
2022/02/25 03:28:30;;;;;;;4.53;1.60;;;1.80;99.90;;;;;;5078172;28;20200;-70
2022/02/25 03:30:57;;;;;;;3.20;1.70;;;1.70;99.90;;;;;;5076681;28;20275;-70
2022/02/25 03:33:24;;;;;;;9.82;2.65;;;1.50;99.90;;;;;;5076734;28;20211;-70
2022/02/25 03:35:51;;;;;;;6.53;1.60;;;1.40;99.90;;;;;;5076942;28;20613;-70
2022/02/25 03:38:17;;;;;;;6.57;1.83;;;1.30;99.90;;;;;;5076727;28;20200;-71
2022/02/25 03:40:44;;;;;;;4.88;1.45;;;1.30;99.90;;;;;;5077457;28;20200;-71
2022/02/25 03:43:10;;;;;;;11.07;1.88;;;1.30;99.90;;;;;;5077561;28;20199;-71
2022/02/25 03:45:37;;;;;;;10.40;2.25;;;1.20;99.90;;;;;;5077522;28;20260;-71
2022/02/25 03:48:03;;;;;;;7.80;1.90;;;1.10;99.90;;;;;;5077096;28;20196;-71
2022/02/25 03:50:30;;;;;;;3.70;1.45;;;1.10;99.90;;;;;;5076938;28;20188;-71
2022/02/25 03:52:57;;;;;;;7.15;2.25;;;1.10;99.90;;;;;;5076896;28;20195;-71
2022/02/25 03:55:23;;;;;;;4.70;1.90;;;1.00;99.90;;;;;;5077405;28;20195;-71
2022/02/25 03:57:50;;;;;;;1.98;1.40;;;1.00;99.90;;;;;;5075926;28;20559;-71
2022/02/25 04:00:16;;;;;;;4.28;1.50;;;0.90;99.90;;;;;;5076673;28;20694;-71
2022/02/25 04:02:43;;;;;;;8.25;1.88;;;1.00;99.90;;;;;;5076500;28;20566;-71
2022/02/25 04:05:12;;;;;;;4.63;1.50;;;0.90;99.90;;;;;;5076516;28;20629;-71
2022/02/25 04:07:41;;;;;;;7.13;1.33;;;0.90;99.90;;;;;;5076809;28;20212;-71
2022/02/25 04:10:11;;;;;;;8.55;4.18;;;0.90;99.90;;;;;;5077151;28;20211;-71
2022/02/25 04:12:38;;;;;;;3.28;1.15;;;0.90;99.90;;;;;;5077092;28;20196;-71
2022/02/25 04:15:10;;;;;;;6.72;1.75;;;0.90;99.90;;;;;;5076605;28;20192;-71
2022/02/25 04:17:37;;;;;;;3.47;1.75;;;0.90;99.90;;;;;;5075170;28;20204;-72
2022/02/25 04:20:05;;;;;;;6.07;1.23;;;0.90;99.90;;;;;;5076103;28;20200;-71
2022/02/25 04:22:31;;;;;;;3.65;1.80;;;0.90;99.90;;;;;;5076119;28;20655;-71
2022/02/25 04:24:58;;;;;;;4.25;1.35;;;0.80;99.90;;;;;;5076352;28;20583;-71
2022/02/25 04:27:24;;;;;;;3.47;1.60;;;0.80;99.90;;;;;;5076441;28;20227;-71
2022/02/25 04:29:51;;;;;;;2.55;1.52;;;0.80;99.90;;;;;;5076851;28;20199;-71
2022/02/25 04:32:17;;;;;;;2.05;1.40;;;0.70;99.90;;;;;;5077158;28;20203;-71
2022/02/25 04:34:44;;;;;;;4.53;1.92;;;0.70;99.90;;;;;;5075759;28;20733;-71
2022/02/25 04:37:10;;;;;;;7.25;1.80;;;0.70;99.90;;;;;;5075632;28;20674;-71
2022/02/25 04:39:37;;;;;;;13.57;1.60;;;0.70;99.90;;;;;;5076273;28;20204;-71
2022/02/25 04:42:03;;;;;;;3.33;1.40;;;0.70;99.90;;;;;;5077666;28;20200;-71
2022/02/25 04:44:30;;;;;;;7.35;1.83;;;0.70;99.90;;;;;;5077449;28;20200;-71
2022/02/25 04:46:56;;;;;;;10.93;1.70;;;0.70;99.90;;;;;;5076431;28;20216;-72
2022/02/25 04:49:23;;;;;;;5.75;2.40;;;0.70;99.90;;;;;;5075530;28;20192;-72
2022/02/25 04:51:49;;;;;;;11.63;2.22;;;0.70;99.90;;;;;;5076498;28;20204;-72
2022/02/25 04:54:16;;;;;;;11.55;2.30;;;0.70;99.90;;;;;;5075285;28;20257;-72
2022/02/25 04:56:42;;;;;;;10.27;2.28;;;0.70;99.90;;;;;;5076391;28;20207;-72
2022/02/25 04:59:08;;;;;;;8.75;3.75;;;0.80;99.90;;;;;;5075824;28;20203;-72
2022/02/25 05:01:35;;;;;;;10.13;2.40;;;0.70;99.90;;;;;;5075979;28;20233;-72
2022/02/25 05:04:02;;;;;;;5.30;2.10;;;0.70;99.90;;;;;;5075899;28;20672;-72
2022/02/25 05:06:28;;;;;;;10.77;2.40;;;0.70;99.90;;;;;;5075850;28;20228;-72
2022/02/25 05:08:55;;;;;;;12.15;2.65;;;0.70;99.90;;;;;;5075818;28;20200;-72
2022/02/25 05:11:21;;;;;;;5.22;1.92;;;0.80;99.90;;;;;;5075873;28;20204;-72
2022/02/25 05:13:49;;;;;;;12.23;2.70;;;0.80;99.90;;;;;;5076183;28;20199;-72
2022/02/25 05:21:45;;;;;;;9.57;2.78;;;0.90;99.90;;;;;;5074842;28;20600;-72
2022/02/25 05:24:12;;;;;;;4.78;2.25;;;0.90;99.90;;;;;;5074553;28;20218;-72
2022/02/25 05:26:38;;;;;;;10.00;2.20;;;0.90;99.90;;;;;;5072696;28;20228;-72
2022/02/25 05:29:05;;;;;;;7.95;2.13;;;1.00;99.90;;;;;;5074483;28;20229;-72
2022/02/25 05:31:33;;;;;;;12.25;2.40;;;0.90;99.90;;;;;;5074624;28;20192;-72
2022/02/25 05:33:59;;;;;;;9.35;2.20;;;1.00;99.90;;;;;;5072741;28;20207;-72
2022/02/25 05:36:26;;;;;;;7.88;2.08;;;1.00;99.90;;;;;;5074317;28;20230;-72
2022/02/25 05:38:55;;;;;;;7.55;2.33;;;1.00;99.90;;;;;;5074257;28;20211;-72
2022/02/25 05:41:22;;;;;;;18.27;3.00;;;1.00;99.90;;;;;;5074608;28;20336;-72
2022/02/25 05:43:48;;;;;;;5.93;2.35;;;1.00;99.90;;;;;;5074218;28;20265;-72
2022/02/25 05:46:15;;;;;;;16.30;2.45;;;0.90;99.90;;;;;;5074139;28;20627;-72
2022/02/25 05:48:41;;;;;;;9.90;2.50;;;0.90;99.90;;;;;;5074339;28;20212;-72
2022/02/25 05:51:08;;;;;;;10.80;2.50;;;0.90;99.90;;;;;;5073833;28;20210;-71
2022/02/25 05:53:34;;;;;;;6.40;2.30;;;0.90;99.90;;;;;;5072549;28;20204;-71
2022/02/25 05:56:01;;;;;;;8.75;2.28;;;0.90;99.90;;;;;;5074230;28;20200;-71
2022/02/25 05:58:27;;;;;;;6.20;2.55;;;0.90;99.90;;;;;;5073845;28;20200;-71
2022/02/25 06:00:53;;;;;;;11.95;2.30;;;0.90;99.90;;;;;;5074225;28;20208;-71
2022/02/25 06:03:20;;;;;;;8.95;2.70;;;1.00;99.90;;;;;;5074249;28;20207;-71
2022/02/25 06:05:46;;;;;;;16.98;3.25;;;0.90;99.90;;;;;;5073718;28;20236;-71
2022/02/25 06:08:13;;;;;;;14.90;2.75;;;1.00;99.90;;;;;;5073742;28;20569;-71
2022/02/25 06:10:39;;;;;;;7.63;3.00;;;1.00;99.90;;;;;;5074102;28;20207;-71
2022/02/25 06:13:06;;;;;;;6.20;2.78;;;1.00;99.90;;;;;;5073710;28;20204;-71
2022/02/25 06:15:32;;;;;;;4.55;2.30;;;1.00;99.90;;;;;;5073998;28;20231;-71
2022/02/25 06:17:58;;;;;;;9.02;2.70;;;1.00;99.90;;;;;;5073796;28;20620;-71
2022/02/25 06:20:25;;;;;;;12.98;2.65;;;1.00;99.90;;;;;;5072326;28;20200;-70
2022/02/25 06:22:51;;;;;;;9.70;3.90;;;1.00;99.90;;;;;;5072832;28;20215;-71
2022/02/25 06:25:18;;;;;;;12.00;3.10;;;0.90;99.90;;;;;;5073810;28;20195;-71
2022/02/25 06:27:45;;;;;;;15.15;2.80;;;1.00;99.90;;;;;;5073878;28;20627;-70
2022/02/25 06:30:13;;;;;;;13.25;2.78;;;1.00;99.90;;;;;;5073730;28;20199;-70
2022/02/25 06:32:40;;;;;;;9.05;2.33;;;1.00;99.90;;;;;;5072622;28;20568;-71
2022/02/25 06:35:07;;;;;;;7.70;2.65;;;1.00;99.90;;;;;;5074145;28;20250;-71
2022/02/25 06:37:34;;;;;;;12.23;2.25;;;1.00;99.90;;;;;;5073731;28;20196;-71
2022/02/25 06:40:01;;;;;;;8.02;2.33;;;1.00;99.90;;;;;;5073899;28;20204;-71
2022/02/25 06:42:27;;;;;;;16.25;3.55;;;1.00;99.90;;;;;;5072561;28;20196;-71
2022/02/25 06:44:54;;;;;;;7.15;2.80;;;1.10;99.90;;;;;;5072650;28;20200;-71
2022/02/25 06:47:23;;;;;;;6.88;2.90;;;1.10;99.90;;;;;;5074209;28;20203;-71
2022/02/25 06:49:49;;;;;;;10.55;2.95;;;1.20;99.90;;;;;;5074272;28;20264;-71
2022/02/25 06:52:16;;;;;;;10.48;3.67;;;1.20;99.90;;;;;;5074078;28;20226;-71
2022/02/25 06:54:42;;;;;;;11.52;3.10;;;1.20;99.90;;;;;;5074014;28;20260;-71
2022/02/25 06:57:09;;;;;;;20.83;4.20;;;1.20;99.90;;;;;;5073243;28;20224;-73
2022/02/25 06:59:35;;;;;;;9.50;4.40;;;1.30;99.90;;;;;;5055682;28;20192;-71
2022/02/25 07:02:02;;;;;;;12.52;3.42;;;1.30;99.90;;;;;;5071681;28;20203;-71
2022/02/25 07:04:28;;;;;;;8.68;3.00;;;1.30;99.90;;;;;;5073565;28;20228;-71
2022/02/25 07:06:55;;;;;;;8.05;3.03;;;1.40;99.90;;;;;;5073607;28;20219;-71
2022/02/25 07:09:22;;;;;;;9.02;3.72;;;1.40;99.90;;;;;;5073815;28;20557;-71
2022/02/25 07:11:48;;;;;;;7.32;2.85;;;1.40;99.90;;;;;;5073658;28;20238;-71
2022/02/25 07:14:15;;;;;;;10.65;2.97;;;1.40;99.90;;;;;;5073474;28;20256;-71
2022/02/25 07:16:42;;;;;;;11.52;3.05;;;1.40;99.90;;;;;;5073405;28;20230;-71
2022/02/25 07:19:09;;;;;;;13.73;2.88;;;1.50;99.90;;;;;;5074013;28;20619;-71
2022/02/25 07:21:35;;;;;;;8.68;3.13;;;1.40;99.90;;;;;;5072758;28;20199;-71
2022/02/25 07:24:03;;;;;;;10.82;3.13;;;1.50;99.90;;;;;;5073638;28;20200;-71
2022/02/25 07:26:30;;;;;;;12.20;3.10;;;1.40;99.90;;;;;;5073381;28;20208;-71
2022/02/25 07:28:57;;;;;;;4.43;3.15;;;1.50;99.90;;;;;;5072305;28;20200;-72
2022/02/25 07:31:23;;;;;;;16.40;3.22;;;1.50;99.90;;;;;;5056004;28;20215;-71
2022/02/25 07:33:50;;;;;;;11.13;3.95;;;1.50;99.90;;;;;;5077259;28;20196;-70
2022/02/25 07:36:18;;;;;;;11.18;2.80;;;1.50;99.90;;;;;;5075093;28;20219;-70
2022/02/25 07:38:44;;;;;;;14.70;3.97;;;1.50;99.90;;;;;;5076386;28;20200;-71
2022/02/25 07:41:11;;;;;;;9.15;4.75;;;1.60;99.90;;;;;;5075358;28;20237;-71
2022/02/25 07:43:37;;;;;;;9.63;3.58;;;1.70;99.90;;;;;;5076153;28;20200;-70
2022/02/25 07:46:03;;;;;;;11.13;3.60;;;1.80;99.90;;;;;;5076163;28;20208;-71
2022/02/25 07:48:30;;;;;;;17.80;4.38;;;1.90;99.90;;;;;;5074937;28;20286;-71
2022/02/25 07:50:56;;;;;;;10.93;3.00;;;2.00;99.90;;;;;;5076287;28;20690;-70
2022/02/25 07:53:22;;;;;;;8.65;3.67;;;2.20;99.90;;;;;;5076312;28;20244;-70
2022/02/25 07:55:49;;;;;;;10.30;4.03;;;2.20;99.90;;;;;;5076021;28;20618;-71
2022/02/25 07:58:15;;;;;;;8.88;4.20;;;2.30;99.90;;;;;;5076358;28;20204;-70
2022/02/25 08:00:42;;;;;;;9.55;2.85;;;2.40;99.90;;;;;;5076136;28;20207;-70
2022/02/25 08:03:08;;;;;;;9.68;4.43;;;2.50;99.90;;;;;;5076067;28;20709;-71
2022/02/25 08:05:35;;;;;;;7.03;3.35;;;2.50;99.90;;;;;;5075713;28;20223;-70
2022/02/25 08:08:04;;;;;;;6.75;3.25;;;2.60;99.90;;;;;;5075147;28;20613;-71
2022/02/25 08:10:35;;;;;;;9.13;3.90;;;2.70;99.90;;;;;;5074522;28;20261;-71
2022/02/25 08:13:03;;;;;;;10.55;3.17;;;2.70;99.90;;;;;;5075963;28;20204;-71
2022/02/25 08:15:33;;;;;;;7.65;2.90;;;2.80;99.90;;;;;;5075976;28;20210;-71
2022/02/25 08:18:01;;;;;;;8.63;3.28;;;2.90;99.90;;;;;;5076561;28;20183;-70
2022/02/25 08:20:27;;;;;;;9.07;3.60;;;2.90;99.90;;;;;;5077158;28;20208;-70
2022/02/25 08:22:57;;;;;;;12.52;3.72;;;2.90;99.90;;;;;;5076589;28;20233;-70
2022/02/25 08:25:24;;;;;;;7.15;3.10;;;3.00;99.90;;;;;;5076370;28;20195;-71
2022/02/25 08:27:50;;;;;;;9.77;4.32;;;3.00;99.90;;;;;;5076219;28;20200;-71
2022/02/25 08:30:17;;;;;;;10.75;4.70;;;3.20;99.90;;;;;;5075787;28;20647;-72
2022/02/25 08:32:49;;;;;;;9.50;3.85;;;3.30;99.90;;;;;;5077814;28;20207;-72
2022/02/25 08:35:17;;;;;;;16.73;3.13;;;3.40;99.90;;;;;;5077626;28;20200;-71
2022/02/25 08:37:44;;;;;;;11.82;4.65;;;3.40;99.90;;;;;;5077622;28;20280;-72
2022/02/25 08:40:12;;;;;;;6.63;3.35;;;3.50;99.90;;;;;;5077900;28;20667;-72
2022/02/25 08:42:39;;;;;;;11.13;3.60;;;3.60;99.90;;;;;;5075742;28;20294;-71
2022/02/25 08:45:08;;;;;;;7.20;2.83;;;3.70;99.90;;;;;;5077395;28;20555;-71
2022/02/25 08:47:34;;;;;;;9.82;2.90;;;3.70;99.90;;;;;;5078127;28;20200;-71
2022/02/25 08:50:02;;;;;;;8.43;4.20;;;3.80;99.90;;;;;;5078348;28;20200;-72
2022/02/25 08:52:28;;;;;;;7.85;3.22;;;3.90;99.90;;;;;;5076834;28;20203;-71
2022/02/25 08:54:55;;;;;;;10.23;3.17;;;4.00;99.90;;;;;;5075978;28;20204;-71
2022/02/25 08:57:21;;;;;;;13.82;4.43;;;4.00;99.90;;;;;;5076727;28;20246;-72
2022/02/25 08:59:48;;;;;;;12.15;4.88;;;4.20;99.90;;;;;;5076926;28;20616;-72
2022/02/25 09:02:14;;;;;;;10.00;3.50;;;4.10;99.90;;;;;;5075679;28;20532;-72
2022/02/25 09:04:42;;;;;;;6.30;2.90;;;4.30;99.90;;;;;;5077116;28;20232;-71
2022/02/25 09:07:10;;;;;;;9.93;3.35;;;4.50;99.90;;;;;;5077480;28;20228;-72
2022/02/25 09:09:36;;;;;;;12.48;2.85;;;4.70;99.90;;;;;;5076567;28;20200;-72
2022/02/25 09:12:03;;;;;;;11.25;3.58;;;4.90;99.90;;;;;;5075718;28;20226;-72
2022/02/25 09:14:30;;;;;;;15.27;3.70;;;5.20;99.90;;;;;;5076326;28;20199;-72
2022/02/25 09:16:56;;;;;;;8.55;3.33;;;5.30;99.90;;;;;;5076395;28;20222;-72
2022/02/25 09:19:23;;;;;;;5.07;2.78;;;5.50;99.90;;;;;;5076118;28;20245;-72
2022/02/25 09:21:49;;;;;;;9.02;4.60;;;5.50;99.90;;;;;;5076134;28;20203;-72
2022/02/25 09:24:16;;;;;;;12.48;4.40;;;5.60;99.90;;;;;;5074566;28;20195;-72
2022/02/25 09:26:43;;;;;;;6.38;3.13;;;5.60;99.90;;;;;;5076333;28;20203;-71
2022/02/25 09:29:10;;;;;;;7.13;2.80;;;5.50;99.90;;;;;;5075674;28;20229;-72
2022/02/25 09:31:36;;;;;;;9.32;2.88;;;5.60;99.90;;;;;;5074873;28;20207;-72
2022/02/25 09:34:02;;;;;;;9.02;3.47;;;5.70;99.90;;;;;;5058020;28;20203;-72
2022/02/25 09:36:29;;;;;;;19.25;2.90;;;5.80;99.90;;;;;;5074717;28;20706;-72
2022/02/25 09:38:55;;;;;;;5.93;2.65;;;5.70;99.90;;;;;;5075290;28;20556;-72
2022/02/25 09:41:21;;;;;;;8.82;2.53;;;5.70;99.90;;;;;;5075584;28;20192;-72
2022/02/25 09:43:48;;;;;;;6.43;3.47;;;5.70;99.90;;;;;;5075446;28;20578;-72
2022/02/25 09:46:14;;;;;;;11.30;3.25;;;5.50;99.90;;;;;;5075257;28;20702;-72
2022/02/25 09:48:40;;;;;;;4.22;2.72;;;5.50;99.90;;;;;;5073798;28;20200;-72
2022/02/25 09:51:08;;;;;;;5.13;2.22;;;5.60;99.90;;;;;;5074798;28;20253;-72
2022/02/25 09:53:35;;;;;;;11.35;4.20;;;5.60;99.90;;;;;;5074552;28;20196;-72
2022/02/25 09:56:01;;;;;;;8.80;2.78;;;5.70;99.90;;;;;;5073674;28;20208;-72
2022/02/25 09:58:27;;;;;;;7.95;2.70;;;5.80;99.90;;;;;;5074574;28;20652;-72
2022/02/25 10:00:54;;;;;;;14.00;3.00;;;5.90;99.90;;;;;;5074884;28;20196;-72
2022/02/25 10:03:25;;;;;;;8.73;3.45;;;5.90;99.90;;;;;;5074820;28;20191;-73
2022/02/25 10:05:51;;;;;;;12.85;3.35;;;6.00;99.90;;;;;;5074354;28;20231;-72
2022/02/25 10:08:20;;;;;;;11.43;3.38;;;6.10;99.90;;;;;;5074529;28;20198;-71
2022/02/25 10:10:57;;;;;;;13.77;3.47;;;6.10;99.90;;;;;;5074306;28;20191;-72
2022/02/25 10:13:26;;;;;;;9.18;2.70;;;6.10;99.90;;;;;;5075516;28;20200;-72
2022/02/25 10:15:56;;;;;;;18.58;2.47;;;6.20;99.90;;;;;;5074595;28;20200;-73
2022/02/25 10:18:24;;;;;;;8.68;2.80;;;6.30;99.90;;;;;;5074372;28;20199;-71
2022/02/25 10:21:07;;;;;;;10.25;2.38;;;6.30;99.90;;;;;;5072827;28;20617;-72
2022/02/25 10:23:39;;;;;;;6.10;2.03;;;6.40;99.90;;;;;;5074530;28;20187;-72
2022/02/25 10:26:13;;;;;;;5.07;2.67;;;6.50;99.90;;;;;;5074344;28;20225;-72
2022/02/25 10:28:42;;;;;;;10.63;3.67;;;6.80;99.90;;;;;;5074051;28;20207;-72
2022/02/25 10:31:23;;;;;;;10.27;2.40;;;6.90;99.90;;;;;;5074560;28;20199;-71
2022/02/25 10:33:59;;;;;;;4.85;2.65;;;6.80;99.90;;;;;;5073865;28;20187;-72
2022/02/25 10:37:00;;;;;;;9.68;3.10;;;7.00;99.90;;;;;;5073471;28;20687;-72
2022/02/25 10:39:31;;;;;;;6.18;2.53;;;7.60;99.90;;;;;;5051295;28;20724;-71
2022/02/25 10:42:11;;;;;;;7.47;2.38;;;7.20;99.90;;;;;;5073499;28;20199;-72
2022/02/25 10:44:50;;;;;;;6.20;2.67;;;7.00;99.90;;;;;;5074191;28;20207;-71
2022/02/25 10:47:23;;;;;;;6.05;2.72;;;6.90;99.90;;;;;;5074252;28;20183;-72
2022/02/25 10:50:02;;;;;;;13.07;3.17;;;6.70;99.90;;;;;;5074569;28;20180;-71
2022/02/25 10:52:36;;;;;;;14.80;2.40;;;6.80;99.90;;;;;;5074028;28;20191;-72
2022/02/25 10:55:06;;;;;;;9.85;2.90;;;6.90;99.90;;;;;;5073823;28;20188;-72
2022/02/25 10:57:35;;;;;;;7.55;2.78;;;7.00;99.90;;;;;;5074303;28;20223;-71
2022/02/25 11:00:07;;;;;;;20.88;2.85;;;6.80;99.90;;;;;;5074232;28;20593;-71
2022/02/25 11:02:47;;;;;;;7.13;2.95;;;6.60;99.90;;;;;;5074131;28;20562;-72
2022/02/25 11:05:24;;;;;;;8.20;3.47;;;6.50;99.90;;;;;;5073956;28;20288;-72
2022/02/25 11:07:58;;;;;;;9.00;3.10;;;6.60;99.90;;;;;;5076490;28;20195;-72
2022/02/25 11:10:35;;;;;;;6.93;2.03;;;6.60;99.90;;;;;;5077781;28;20194;-72
2022/02/25 11:13:07;;;;;;;8.82;2.60;;;6.60;99.90;;;;;;5078432;28;20192;-72
2022/02/25 11:15:36;;;;;;;10.95;3.03;;;6.70;99.90;;;;;;5078450;28;20669;-72
2022/02/25 11:18:03;;;;;;;7.88;3.05;;;6.70;99.90;;;;;;5078506;28;20227;-71
2022/02/25 11:20:35;;;;;;;13.80;2.92;;;6.70;99.90;;;;;;5078309;28;20655;-72
2022/02/25 11:23:10;;;;;;;9.98;3.05;;;6.80;99.90;;;;;;5077173;28;20261;-72
2022/02/25 11:25:38;;;;;;;11.15;2.50;;;7.00;99.90;;;;;;5077818;28;20203;-74
2022/02/25 11:28:06;;;;;;;7.47;2.30;;;7.00;99.90;;;;;;5076457;28;20572;-72
2022/02/25 11:30:53;;;;;;;17.05;2.72;;;6.80;99.90;;;;;;5076569;28;20287;-71
2022/02/25 11:33:23;;;;;;;3.15;2.05;;;6.90;99.90;;;;;;5077914;28;20188;-72
2022/02/25 11:35:52;;;;;;;13.23;2.70;;;7.00;99.90;;;;;;5077728;28;20575;-72
2022/02/25 11:38:27;;;;;;;9.48;2.33;;;7.20;99.90;;;;;;5077275;28;20215;-72
2022/02/25 11:41:19;;;;;;;11.20;3.00;;;7.50;99.90;;;;;;5077420;28;20203;-72
2022/02/25 11:43:54;;;;;;;15.30;3.13;;;7.30;99.90;;;;;;5077484;28;20196;-72
2022/02/25 11:46:28;;;;;;;6.40;2.33;;;7.10;99.90;;;;;;5077189;28;20286;-72
2022/02/25 11:49:13;;;;;;;12.02;3.33;;;7.10;99.90;;;;;;5077294;28;20188;-72
2022/02/25 11:51:43;;;;;;;8.60;2.50;;;7.00;99.90;;;;;;5077659;28;20656;-72
2022/02/25 11:54:26;;;;;;;9.57;4.00;;;7.30;99.90;;;;;;5075625;28;20196;-73
2022/02/25 11:56:56;;;;;;;11.88;2.97;;;7.10;99.90;;;;;;5076503;28;20220;-72
2022/02/25 11:59:25;;;;;;;13.55;3.38;;;7.10;99.90;;;;;;5076623;28;20204;-72
2022/02/25 12:02:16;;;;;;;10.15;2.72;;;7.00;99.90;;;;;;5076260;28;20210;-71
2022/02/25 12:04:44;;;;;;;7.22;2.38;;;7.00;99.90;;;;;;5075964;28;20236;-71
2022/02/25 12:07:18;;;;;;;6.85;2.63;;;7.00;99.90;;;;;;5075981;28;20557;-71
2022/02/25 12:09:56;;;;;;;10.77;3.15;;;7.00;99.90;;;;;;5076401;28;20559;-71
2022/02/25 12:12:28;;;;;;;6.05;2.53;;;7.10;99.90;;;;;;5076206;28;20362;-71
2022/02/25 12:15:15;;;;;;;3.72;2.08;;;7.20;99.90;;;;;;5074112;28;20215;-71
2022/02/25 12:17:46;;;;;;;13.90;3.17;;;7.20;99.90;;;;;;5076186;28;20282;-71
2022/02/25 12:20:33;;;;;;;9.65;2.70;;;7.10;99.90;;;;;;5075575;28;20195;-72
2022/02/25 12:23:02;;;;;;;7.00;2.78;;;7.00;99.90;;;;;;5075800;28;20202;-71
2022/02/25 12:25:40;;;;;;;8.35;2.88;;;6.90;99.90;;;;;;5075628;28;20682;-71
2022/02/25 12:28:28;;;;;;;4.60;2.47;;;7.00;99.90;;;;;;5075471;28;20188;-71
2022/02/25 12:31:02;;;;;;;20.90;13.88;;;7.10;99.90;;;;;;5075922;28;20204;-71
2022/02/25 12:33:53;;;;;;;14.32;7.55;;;7.10;99.90;;;;;;5076205;28;20196;-71
2022/02/25 12:36:28;;;;;;;11.63;6.22;;;6.90;99.90;;;;;;5075742;28;20211;-71
2022/02/25 12:39:01;;;;;;;10.95;5.50;;;6.80;99.90;;;;;;5075823;28;20196;-71
2022/02/25 12:41:34;;;;;;;15.63;6.45;;;6.70;99.90;;;;;;5076244;28;20188;-71
2022/02/25 12:44:03;;;;;;;9.77;3.45;;;6.80;99.90;;;;;;5075547;28;20180;-71
2022/02/25 12:46:36;;;;;;;13.88;3.20;;;6.90;99.90;;;;;;5076057;28;20565;-71
2022/02/25 12:49:05;;;;;;;12.23;3.05;;;7.10;99.90;;;;;;5075811;28;20214;-71
2022/02/25 12:51:31;;;;;;;7.20;2.42;;;7.00;99.90;;;;;;5075453;28;20207;-72
2022/02/25 12:54:00;;;;;;;14.85;3.47;;;7.00;99.90;;;;;;5075994;28;20208;-71
2022/02/25 12:56:35;;;;;;;5.40;2.65;;;7.00;99.90;;;;;;5075658;28;20277;-72
2022/02/25 12:59:07;;;;;;;8.65;3.00;;;7.00;99.90;;;;;;5076106;28;20287;-71
2022/02/25 13:01:36;;;;;;;4.80;2.13;;;7.10;99.90;;;;;;5076117;28;20196;-71
2022/02/25 13:04:15;;;;;;;7.70;2.60;;;7.50;99.90;;;;;;5075707;28;20239;-72